Time;durP1;ratioP1;P1;durP2;ratioP2;P2;SDS_P1;SDS_P2;PMS_P1;PMS_P2;Temp;Humidity;BMP_temperature;BMP_pressure;BME280_temperature;BME280_humidity;BME280_pressure;Samples;Min_cycle;Max_cycle;Signal;HPM_P1;HPM_P2
2021/06/23 04:17:37;;;;;;;0.30;0.30;;;19.70;99.90;;;;;;4932892;23;20241;-77
2021/06/23 04:20:07;;;;;;;0.30;0.30;;;19.70;99.90;;;;;;4918282;29;20231;-77
2021/06/23 04:22:35;;;;;;;0.30;0.30;;;19.80;99.90;;;;;;4918096;29;20254;-77
2021/06/23 04:25:04;;;;;;;0.30;0.30;;;19.90;99.90;;;;;;4918514;29;20219;-79
2021/06/23 04:27:32;;;;;;;0.30;0.30;;;19.90;99.90;;;;;;4918707;29;20688;-78
2021/06/23 04:30:02;;;;;;;0.30;0.30;;;19.80;99.90;;;;;;4959340;23;20194;-79
2021/06/23 04:32:33;;;;;;;0.30;0.30;;;19.90;99.90;;;;;;4915391;29;20211;-78
2021/06/23 04:35:05;;;;;;;0.30;0.30;;;19.90;99.90;;;;;;4925314;29;20215;-78
2021/06/23 04:37:34;;;;;;;0.30;0.30;;;20.00;99.90;;;;;;4921185;29;20230;-79
2021/06/23 04:40:03;;;;;;;0.30;0.30;;;20.00;99.90;;;;;;4921654;29;20256;-80
2021/06/23 04:42:31;;;;;;;0.30;0.30;;;20.00;99.90;;;;;;4922787;29;20230;-79
2021/06/23 04:44:59;;;;;;;0.30;0.30;;;20.20;99.90;;;;;;4921920;29;20215;-79
2021/06/23 04:47:27;;;;;;;0.30;0.30;;;20.00;99.90;;;;;;4920762;29;20207;-80
2021/06/23 04:49:55;;;;;;;0.30;0.30;;;20.10;99.90;;;;;;4920486;29;20207;-80
2021/06/23 04:52:24;;;;;;;0.30;0.30;;;20.10;99.90;;;;;;4920383;29;20195;-79
2021/06/23 04:54:52;;;;;;;0.30;0.30;;;20.00;99.90;;;;;;4922071;29;20231;-77
2021/06/23 04:57:20;;;;;;;0.30;0.30;;;20.00;99.90;;;;;;4920343;29;20720;-80
2021/06/23 04:59:48;;;;;;;0.30;0.30;;;20.10;99.90;;;;;;4920845;29;20206;-80
2021/06/23 05:02:16;;;;;;;0.30;0.30;;;20.10;99.90;;;;;;4920548;29;20218;-79
2021/06/23 05:04:44;;;;;;;0.30;0.30;;;20.20;99.90;;;;;;4920390;29;20214;-80
2021/06/23 05:07:12;;;;;;;0.30;0.30;;;20.20;99.90;;;;;;4917769;29;20671;-79
2021/06/23 05:09:41;;;;;;;0.30;0.30;;;20.10;99.90;;;;;;4921166;29;20202;-80
2021/06/23 05:12:10;;;;;;;0.40;0.40;;;20.10;99.90;;;;;;4920715;29;20223;-78
2021/06/23 05:14:38;;;;;;;0.30;0.30;;;20.10;99.90;;;;;;4921390;29;20209;-79
2021/06/23 05:17:06;;;;;;;0.30;0.30;;;20.00;99.90;;;;;;4920061;29;20214;-77
2021/06/23 05:19:37;;;;;;;0.30;0.30;;;20.10;99.90;;;;;;4920286;29;20218;-80
2021/06/23 05:22:05;;;;;;;0.30;0.30;;;20.20;99.90;;;;;;4920983;29;20258;-79
2021/06/23 05:24:34;;;;;;;0.30;0.30;;;20.30;99.90;;;;;;4921889;29;20234;-80
2021/06/23 05:27:03;;;;;;;0.30;0.30;;;20.30;99.90;;;;;;4921799;29;20676;-79
2021/06/23 05:29:31;;;;;;;0.30;0.30;;;20.20;99.90;;;;;;4921822;29;20229;-80
2021/06/23 05:32:00;;;;;;;0.30;0.30;;;20.20;99.90;;;;;;4921365;29;20603;-80
2021/06/23 05:34:28;;;;;;;0.30;0.30;;;20.20;99.90;;;;;;4922490;29;20234;-81
2021/06/23 05:36:56;;;;;;;0.22;0.22;;;20.30;99.90;;;;;;4922523;29;20257;-80
2021/06/23 05:39:25;;;;;;;0.30;0.30;;;20.30;99.90;;;;;;4924969;29;20209;-79
2021/06/23 05:41:58;;;;;;;0.30;0.30;;;20.40;99.90;;;;;;4929548;29;20230;-80
2021/06/23 05:44:28;;;;;;;0.20;0.20;;;20.40;99.90;;;;;;4932451;29;20217;-78
2021/06/23 05:46:56;;;;;;;0.30;0.30;;;20.50;99.90;;;;;;4931160;29;20218;-78
2021/06/23 05:49:24;;;;;;;0.30;0.30;;;20.70;99.90;;;;;;4929311;29;20210;-78
2021/06/23 05:51:53;;;;;;;0.30;0.30;;;20.80;99.90;;;;;;4928521;29;20227;-80
2021/06/23 05:54:20;;;;;;;0.30;0.30;;;21.00;99.90;;;;;;4928189;29;20211;-79
2021/06/23 05:56:48;;;;;;;0.20;0.20;;;21.10;99.90;;;;;;4920492;29;20214;-80
2021/06/23 05:59:16;;;;;;;0.25;0.25;;;21.20;99.90;;;;;;4913802;29;20226;-74
2021/06/23 06:18:02;;;;;;;0.30;0.30;;;20.80;99.90;;;;;;5270326;23;20238;-74
2021/06/23 06:20:32;;;;;;;0.20;0.20;;;20.90;99.90;;;;;;4915548;29;20210;-74
2021/06/23 06:23:00;;;;;;;0.20;0.20;;;21.00;99.90;;;;;;4915605;29;20211;-75
2021/06/23 06:25:28;;;;;;;0.30;0.30;;;20.90;99.90;;;;;;4915944;29;20207;-75
2021/06/23 06:27:57;;;;;;;0.30;0.30;;;20.90;99.90;;;;;;4916119;29;20231;-76
2021/06/23 06:30:26;;;;;;;0.20;0.20;;;20.80;99.90;;;;;;4915654;29;20270;-74
2021/06/23 06:32:55;;;;;;;0.20;0.20;;;20.70;99.90;;;;;;4915656;29;20222;-76
2021/06/23 06:35:24;;;;;;;0.30;0.30;;;20.70;99.90;;;;;;4915585;29;20206;-77
2021/06/23 06:37:52;;;;;;;0.30;0.30;;;20.70;99.90;;;;;;4915791;29;20227;-79
2021/06/23 06:40:20;;;;;;;0.30;0.30;;;20.70;99.90;;;;;;4922334;29;20199;-78
2021/06/23 06:42:49;;;;;;;0.30;0.30;;;20.70;99.90;;;;;;4922583;29;20290;-77
2021/06/23 06:45:18;;;;;;;0.30;0.30;;;20.70;99.90;;;;;;4920608;29;20210;-77
2021/06/23 06:47:46;;;;;;;0.30;0.30;;;20.60;99.90;;;;;;4923650;29;20227;-78
2021/06/23 06:50:14;;;;;;;0.30;0.30;;;20.60;99.90;;;;;;4926338;29;20210;-78
2021/06/23 06:52:43;;;;;;;0.30;0.30;;;20.50;99.90;;;;;;4924738;29;20207;-79
2021/06/23 06:55:12;;;;;;;0.22;0.22;;;20.40;99.90;;;;;;4922063;29;20258;-77
2021/06/23 06:57:40;;;;;;;0.30;0.30;;;20.50;99.90;;;;;;4921660;29;20266;-77
2021/06/23 07:00:09;;;;;;;0.30;0.30;;;20.50;99.90;;;;;;4921145;29;20210;-78
2021/06/23 07:02:37;;;;;;;0.30;0.30;;;20.50;99.90;;;;;;4921570;29;20262;-78
2021/06/23 07:05:06;;;;;;;0.30;0.30;;;20.50;99.90;;;;;;4921369;29;20222;-77
2021/06/23 07:07:34;;;;;;;0.30;0.30;;;20.50;99.90;;;;;;4921690;29;20602;-77
2021/06/23 07:10:03;;;;;;;0.30;0.30;;;20.50;99.90;;;;;;4921836;29;20703;-77
2021/06/23 07:12:31;;;;;;;0.30;0.30;;;20.60;99.90;;;;;;4922497;29;20202;-77
2021/06/23 07:14:59;;;;;;;0.30;0.30;;;20.70;99.90;;;;;;4921527;29;20234;-77
2021/06/23 07:17:27;;;;;;;0.30;0.30;;;20.70;99.90;;;;;;4921018;29;20651;-78
2021/06/23 07:19:55;;;;;;;0.30;0.30;;;20.70;99.90;;;;;;4922326;29;20207;-77
2021/06/23 07:22:23;;;;;;;0.22;0.22;;;20.70;99.90;;;;;;4921989;29;20238;-77
2021/06/23 07:24:51;;;;;;;0.20;0.20;;;20.90;99.90;;;;;;4922080;29;20213;-77
2021/06/23 07:27:22;;;;;;;0.30;0.30;;;21.00;99.90;;;;;;4922174;29;20226;-78
2021/06/23 07:29:51;;;;;;;0.30;0.30;;;21.00;99.90;;;;;;4923018;29;20215;-78
2021/06/23 07:32:23;;;;;;;0.30;0.30;;;21.30;99.90;;;;;;4922112;29;20581;-78
2021/06/23 07:37:33;;;;;;;0.30;0.30;;;21.00;99.90;;;;;;4923197;29;20235;-78
2021/06/23 07:40:01;;;;;;;0.20;0.20;;;21.00;99.90;;;;;;4926431;29;20211;-78
2021/06/23 07:42:30;;;;;;;0.30;0.30;;;21.00;99.90;;;;;;4938578;29;20222;-77
2021/06/23 07:45:00;;;;;;;0.30;0.30;;;21.10;99.90;;;;;;4940276;29;20210;-77
2021/06/23 07:47:30;;;;;;;0.30;0.30;;;21.00;99.90;;;;;;4941400;29;20234;-77
2021/06/23 07:49:59;;;;;;;0.30;0.30;;;21.00;99.90;;;;;;4938378;29;20203;-77
2021/06/23 07:52:33;;;;;;;0.20;0.20;;;21.10;99.90;;;;;;4941764;29;20203;-77
2021/06/23 07:55:07;;;;;;;0.20;0.20;;;21.30;99.90;;;;;;4933273;29;20211;-77
2021/06/23 08:08:49;;;;;;;0.22;0.22;;;21.10;99.90;;;;;;4918656;29;20280;-77
2021/06/23 08:11:19;;;;;;;0.30;0.30;;;21.10;99.90;;;;;;4918245;29;20268;-77
2021/06/23 08:13:49;;;;;;;0.30;0.30;;;21.10;99.90;;;;;;4917753;29;20242;-77
2021/06/23 08:16:17;;;;;;;0.20;0.20;;;21.20;99.90;;;;;;4925377;29;20199;-78
2021/06/23 08:18:45;;;;;;;0.30;0.30;;;21.20;99.90;;;;;;4923028;29;20266;-78
2021/06/23 08:21:13;;;;;;;0.30;0.30;;;21.30;99.90;;;;;;4925104;29;20417;-78
2021/06/23 08:23:41;;;;;;;0.20;0.20;;;21.40;99.90;;;;;;4921266;29;20226;-78
2021/06/23 08:26:08;;;;;;;0.30;0.30;;;21.60;99.90;;;;;;4921377;29;20207;-78
2021/06/23 08:28:36;;;;;;;0.30;0.30;;;21.60;99.90;;;;;;4921830;29;20249;-77
2021/06/23 08:31:05;;;;;;;0.30;0.30;;;21.60;99.90;;;;;;4921002;29;20251;-78
2021/06/23 08:33:33;;;;;;;0.30;0.30;;;21.60;99.90;;;;;;4920207;29;20245;-77
2021/06/23 08:36:01;;;;;;;0.30;0.30;;;21.40;99.90;;;;;;4920143;29;20213;-77
2021/06/23 08:38:29;;;;;;;0.30;0.30;;;21.30;99.90;;;;;;4918966;29;20231;-77
2021/06/23 08:40:57;;;;;;;0.30;0.30;;;21.40;99.90;;;;;;4919233;29;20231;-77
2021/06/23 08:43:25;;;;;;;0.20;0.20;;;21.20;99.90;;;;;;4919186;29;20295;-77
2021/06/23 08:45:53;;;;;;;0.25;0.25;;;21.40;99.90;;;;;;4918915;29;20206;-78
2021/06/23 08:48:22;;;;;;;0.20;0.20;;;21.40;99.90;;;;;;4918193;29;20704;-77
2021/06/23 08:50:51;;;;;;;0.20;0.20;;;21.00;99.90;;;;;;4918020;29;20266;-77
2021/06/23 08:53:19;;;;;;;0.20;0.20;;;20.90;99.90;;;;;;4918241;29;20199;-77
2021/06/23 08:55:47;;;;;;;0.20;0.20;;;21.00;99.90;;;;;;4918376;29;20249;-77
2021/06/23 08:58:15;;;;;;;0.20;0.20;;;21.10;99.90;;;;;;4917265;29;20638;-77
2021/06/23 09:00:43;;;;;;;0.20;0.20;;;21.20;99.90;;;;;;4918179;29;20237;-77
2021/06/23 09:03:11;;;;;;;0.30;0.30;;;21.30;99.90;;;;;;4917605;29;20223;-77
2021/06/23 09:05:51;;;;;;;0.20;0.20;;;21.20;99.90;;;;;;4917518;29;20591;-77
2021/06/23 09:08:36;;;;;;;0.20;0.20;;;21.20;99.90;;;;;;4919422;29;20249;-77
2021/06/23 09:11:19;;;;;;;0.20;0.20;;;21.20;99.90;;;;;;4919225;29;20222;-77
2021/06/23 09:13:47;;;;;;;0.20;0.20;;;21.20;99.90;;;;;;4924211;29;20202;-77
2021/06/23 09:16:15;;;;;;;0.30;0.30;;;21.20;99.90;;;;;;4926078;29;20235;-77
2021/06/23 09:18:44;;;;;;;0.20;0.20;;;21.20;99.90;;;;;;4924717;29;20242;-77
2021/06/23 09:21:18;;;;;;;0.20;0.20;;;21.20;99.90;;;;;;4932851;29;20206;-77
2021/06/23 09:23:48;;;;;;;0.30;0.30;;;20.80;99.90;;;;;;4922730;29;20225;-78
2021/06/23 09:26:20;;;;;;;0.20;0.20;;;20.80;99.90;;;;;;4921077;29;20230;-78
2021/06/23 09:29:07;;;;;;;0.30;0.30;;;20.80;99.90;;;;;;4919147;29;20255;-78
2021/06/23 09:31:56;;;;;;;0.20;0.20;;;20.90;99.90;;;;;;4921290;29;20202;-78
2021/06/23 09:34:26;;;;;;;0.30;0.30;;;20.90;99.90;;;;;;4921156;29;20202;-78
2021/06/23 09:36:56;;;;;;;0.30;0.30;;;20.80;99.90;;;;;;4920203;29;20230;-78
2021/06/23 09:39:25;;;;;;;0.30;0.30;;;20.80;99.90;;;;;;4920130;29;20206;-78
2021/06/23 09:41:53;;;;;;;0.30;0.30;;;20.70;99.90;;;;;;4919907;29;20231;-77
2021/06/23 09:44:23;;;;;;;0.20;0.20;;;20.70;99.90;;;;;;4918882;29;20282;-77
2021/06/23 09:46:52;;;;;;;0.30;0.30;;;20.60;99.90;;;;;;4920210;29;20231;-78
2021/06/23 09:49:21;;;;;;;0.28;0.28;;;20.60;99.90;;;;;;4921863;29;20230;-78
2021/06/23 09:51:51;;;;;;;0.30;0.30;;;20.60;99.90;;;;;;4921002;29;20207;-77
2021/06/23 09:54:22;;;;;;;0.40;0.40;;;20.70;99.90;;;;;;4916531;29;20199;-77
2021/06/23 09:57:15;;;;;;;0.30;0.30;;;20.60;99.90;;;;;;4916401;29;20229;-79
2021/06/23 09:59:47;;;;;;;0.30;0.30;;;20.50;99.90;;;;;;4915955;29;20258;-76
2021/06/23 10:02:23;;;;;;;0.30;0.30;;;20.20;99.90;;;;;;4917248;29;20239;-78
2021/06/23 10:04:51;;;;;;;0.40;0.40;;;20.00;99.90;;;;;;4920784;29;20247;-78
2021/06/23 10:07:39;;;;;;;0.30;0.30;;;20.30;99.90;;;;;;4921451;29;20229;-78
2021/06/23 10:10:11;;;;;;;0.30;0.30;;;19.90;99.90;;;;;;4922339;29;20210;-77
2021/06/23 10:12:39;;;;;;;0.30;0.30;;;19.80;99.90;;;;;;4926916;29;20277;-78
2021/06/23 10:15:08;;;;;;;0.30;0.30;;;19.90;99.90;;;;;;4925276;29;20210;-78
2021/06/23 10:17:38;;;;;;;0.30;0.30;;;19.80;99.90;;;;;;4925706;29;20234;-78
2021/06/23 10:20:07;;;;;;;0.30;0.30;;;19.80;99.90;;;;;;4925427;29;20211;-78
2021/06/23 10:22:36;;;;;;;0.30;0.30;;;19.80;99.90;;;;;;4927683;29;20206;-78
2021/06/23 10:25:06;;;;;;;0.30;0.30;;;19.90;99.90;;;;;;4924933;29;20222;-78
2021/06/23 10:27:41;;;;;;;0.30;0.30;;;19.90;99.90;;;;;;4926839;29;20234;-78
2021/06/23 10:30:10;;;;;;;0.30;0.30;;;19.80;99.90;;;;;;4926637;29;20206;-77
2021/06/23 10:32:38;;;;;;;0.40;0.40;;;19.80;99.90;;;;;;4922369;29;20231;-77
2021/06/23 10:35:16;;;;;;;0.20;0.20;;;19.80;99.90;;;;;;4924616;29;20206;-77
2021/06/23 10:37:53;;;;;;;0.30;0.30;;;19.80;99.90;;;;;;4926822;29;20278;-77
2021/06/23 10:40:32;;;;;;;0.30;0.30;;;19.90;99.90;;;;;;4928514;29;20217;-77
2021/06/23 10:43:13;;;;;;;0.40;0.40;;;19.90;99.90;;;;;;4922561;29;20226;-77
2021/06/23 10:45:43;;;;;;;0.30;0.30;;;19.70;99.90;;;;;;4924659;29;20213;-77
2021/06/23 10:48:12;;;;;;;0.30;0.30;;;19.60;99.90;;;;;;4922054;29;20986;-77
2021/06/23 10:50:40;;;;;;;0.30;0.30;;;19.70;99.90;;;;;;4922621;29;20210;-77
2021/06/23 10:53:33;;;;;;;0.30;0.30;;;19.70;99.90;;;;;;4931751;29;20234;-77
2021/06/23 10:56:03;;;;;;;0.30;0.30;;;19.60;99.90;;;;;;4932114;29;20211;-77
2021/06/23 10:58:35;;;;;;;0.30;0.30;;;19.60;99.90;;;;;;4933757;29;20227;-77
2021/06/23 11:01:09;;;;;;;0.30;0.30;;;19.50;99.90;;;;;;4934270;29;20207;-77
2021/06/23 11:03:57;;;;;;;0.30;0.30;;;19.60;99.90;;;;;;4933449;29;20258;-77
2021/06/23 11:06:39;;;;;;;0.30;0.30;;;19.80;99.90;;;;;;4921069;29;20688;-77
2021/06/23 11:09:25;;;;;;;0.30;0.30;;;19.70;99.90;;;;;;4919705;29;20207;-77
2021/06/23 11:11:53;;;;;;;0.30;0.30;;;19.80;99.90;;;;;;4919444;29;20210;-77
2021/06/23 11:14:24;;;;;;;0.30;0.30;;;20.00;99.90;;;;;;4919600;29;20632;-77
2021/06/23 11:16:52;;;;;;;0.30;0.30;;;20.00;99.90;;;;;;4919018;29;20230;-77
2021/06/23 11:19:20;;;;;;;0.30;0.30;;;20.00;99.90;;;;;;4919299;29;20262;-77
2021/06/23 11:22:14;;;;;;;0.30;0.30;;;20.10;99.90;;;;;;4919023;29;20207;-77
2021/06/23 11:24:42;;;;;;;0.30;0.30;;;20.30;99.90;;;;;;4919218;29;20222;-77
2021/06/23 11:27:15;;;;;;;0.30;0.30;;;20.20;99.90;;;;;;4918890;29;20259;-77
2021/06/23 11:29:46;;;;;;;0.30;0.30;;;20.20;99.90;;;;;;4919338;29;20203;-77
2021/06/23 11:32:25;;;;;;;0.30;0.30;;;20.20;99.90;;;;;;4919601;29;20210;-77
2021/06/23 11:34:59;;;;;;;0.40;0.40;;;20.30;99.90;;;;;;4919483;29;20202;-78
2021/06/23 11:37:36;;;;;;;0.30;0.30;;;20.30;99.90;;;;;;4918937;29;20226;-78
2021/06/23 11:40:13;;;;;;;0.30;0.30;;;20.20;99.90;;;;;;4918941;29;20202;-78
2021/06/23 11:42:41;;;;;;;0.30;0.30;;;20.30;99.90;;;;;;4919737;29;20214;-77
2021/06/23 11:45:11;;;;;;;0.30;0.30;;;20.20;99.90;;;;;;4921993;29;20250;-77
2021/06/23 11:47:40;;;;;;;0.30;0.30;;;20.10;99.90;;;;;;4931144;29;20233;-78
2021/06/23 11:50:08;;;;;;;0.30;0.30;;;20.00;99.90;;;;;;4934682;29;20215;-77
2021/06/23 11:52:36;;;;;;;0.30;0.30;;;20.30;99.90;;;;;;4926866;29;20275;-78
2021/06/23 11:55:05;;;;;;;0.30;0.30;;;20.00;99.90;;;;;;4921216;29;20625;-78
2021/06/23 11:57:33;;;;;;;0.30;0.30;;;19.90;99.90;;;;;;4921955;29;20314;-77
2021/06/23 12:00:07;;;;;;;0.28;0.28;;;19.80;99.90;;;;;;4922306;29;20211;-78
2021/06/23 12:02:36;;;;;;;0.28;0.28;;;19.80;99.90;;;;;;4922119;29;20203;-77
2021/06/23 12:05:05;;;;;;;0.30;0.30;;;19.90;99.90;;;;;;4922722;29;20639;-78
2021/06/23 12:07:33;;;;;;;0.30;0.30;;;20.00;99.90;;;;;;4922527;29;20226;-77
2021/06/23 12:10:02;;;;;;;0.30;0.30;;;20.10;99.90;;;;;;4923246;29;20207;-77
2021/06/23 12:12:30;;;;;;;0.30;0.30;;;20.10;99.90;;;;;;4923152;29;20206;-78
2021/06/23 12:14:58;;;;;;;0.30;0.30;;;20.10;99.90;;;;;;4923335;29;20203;-78
2021/06/23 12:17:26;;;;;;;0.30;0.30;;;20.20;99.90;;;;;;4922348;29;20234;-77
2021/06/23 12:19:56;;;;;;;0.30;0.30;;;20.10;99.90;;;;;;4921880;29;20634;-77
2021/06/23 12:22:24;;;;;;;0.30;0.30;;;20.00;99.90;;;;;;4920546;29;20207;-77
2021/06/23 12:24:52;;;;;;;0.30;0.30;;;20.00;99.90;;;;;;4918736;29;20227;-77
2021/06/23 12:27:20;;;;;;;0.20;0.20;;;20.00;99.90;;;;;;4919818;29;20250;-77
2021/06/23 12:29:48;;;;;;;0.30;0.30;;;20.10;99.90;;;;;;4919701;29;20234;-77
2021/06/23 12:32:16;;;;;;;0.30;0.30;;;19.90;99.90;;;;;;4919416;29;20219;-77
2021/06/23 12:34:44;;;;;;;0.30;0.30;;;19.80;99.90;;;;;;4919249;29;20229;-77
2021/06/23 12:37:13;;;;;;;0.30;0.30;;;19.60;99.90;;;;;;4921778;29;20238;-75
2021/06/23 12:39:41;;;;;;;0.30;0.30;;;19.50;99.90;;;;;;4920822;29;20211;-79
2021/06/23 12:42:09;;;;;;;0.30;0.30;;;19.50;99.90;;;;;;4921008;29;20711;-79
2021/06/23 12:44:39;;;;;;;0.35;0.35;;;19.70;99.90;;;;;;4920944;29;20284;-79
2021/06/23 12:47:07;;;;;;;0.30;0.30;;;19.60;99.90;;;;;;4920830;29;20258;-78
2021/06/23 12:49:35;;;;;;;0.30;0.30;;;19.60;99.90;;;;;;4921209;29;20202;-79
2021/06/23 12:52:03;;;;;;;0.30;0.30;;;19.70;99.90;;;;;;4920506;29;20218;-79
2021/06/23 12:54:32;;;;;;;0.30;0.30;;;19.90;99.90;;;;;;4920011;29;20692;-78
2021/06/23 12:57:00;;;;;;;0.30;0.30;;;20.10;99.90;;;;;;4920095;29;20611;-78
2021/06/23 12:59:30;;;;;;;0.30;0.30;;;20.20;99.90;;;;;;4918437;29;20206;-77
2021/06/23 13:01:58;;;;;;;0.30;0.30;;;20.30;99.90;;;;;;4918267;29;20238;-78
2021/06/23 13:04:26;;;;;;;0.30;0.30;;;20.40;99.90;;;;;;4917505;29;20223;-77
2021/06/23 13:06:55;;;;;;;0.30;0.30;;;20.50;99.90;;;;;;4917704;29;20238;-78
2021/06/23 13:09:23;;;;;;;0.30;0.30;;;20.30;99.90;;;;;;4924199;29;20695;-77
2021/06/23 13:11:52;;;;;;;0.30;0.30;;;20.40;99.90;;;;;;4925822;29;20199;-76
2021/06/23 13:14:20;;;;;;;0.30;0.30;;;20.30;99.90;;;;;;4925139;29;20195;-77
2021/06/23 13:16:48;;;;;;;0.30;0.30;;;20.20;99.90;;;;;;4924431;29;20239;-77
2021/06/23 13:19:16;;;;;;;0.30;0.30;;;20.00;99.90;;;;;;4924880;29;20198;-77
2021/06/23 13:21:44;;;;;;;0.30;0.30;;;20.00;99.90;;;;;;4922341;29;20694;-77
2021/06/23 13:24:12;;;;;;;0.30;0.30;;;20.10;99.90;;;;;;4925054;29;20257;-77
2021/06/23 13:26:41;;;;;;;0.40;0.40;;;20.30;99.90;;;;;;4908973;29;20211;-78
2021/06/23 13:29:10;;;;;;;0.30;0.30;;;20.20;99.90;;;;;;4917900;29;20288;-77
2021/06/23 13:31:38;;;;;;;0.30;0.30;;;20.20;99.90;;;;;;4916594;29;20239;-77
2021/06/23 13:34:09;;;;;;;0.30;0.30;;;20.30;99.90;;;;;;4917613;29;20266;-77
2021/06/23 13:36:37;;;;;;;0.30;0.30;;;20.30;99.90;;;;;;4916499;29;20207;-77
2021/06/23 13:39:06;;;;;;;0.40;0.40;;;20.30;99.90;;;;;;4901105;29;20207;-76
2021/06/23 13:41:34;;;;;;;0.30;0.30;;;20.20;99.90;;;;;;4897629;29;20259;-75
2021/06/23 13:44:02;;;;;;;0.30;0.30;;;20.30;99.90;;;;;;4899164;29;20207;-76
2021/06/23 13:46:31;;;;;;;0.30;0.30;;;20.70;99.90;;;;;;4896756;29;20279;-75
2021/06/23 13:48:59;;;;;;;0.30;0.30;;;20.60;99.90;;;;;;4899837;29;20205;-75
2021/06/23 13:51:27;;;;;;;0.30;0.30;;;20.70;99.90;;;;;;4902274;29;20635;-75
2021/06/23 13:53:55;;;;;;;0.30;0.30;;;20.70;99.90;;;;;;4906417;29;20617;-75
2021/06/23 13:56:22;;;;;;;0.38;0.38;;;21.00;99.90;;;;;;4896986;29;20230;-75
2021/06/23 13:58:50;;;;;;;0.30;0.30;;;20.50;99.90;;;;;;4904277;29;20207;-75
2021/06/23 14:01:18;;;;;;;0.40;0.40;;;20.70;99.90;;;;;;4895172;29;20227;-75
2021/06/23 14:03:49;;;;;;;0.30;0.30;;;20.70;99.90;;;;;;4896767;29;20294;-75
2021/06/23 14:06:17;;;;;;;0.30;0.30;;;20.80;99.90;;;;;;4896710;29;20266;-75
2021/06/23 14:08:44;;;;;;;0.30;0.30;;;20.80;99.90;;;;;;4896957;29;20719;-75
2021/06/23 14:11:12;;;;;;;0.30;0.30;;;20.30;99.90;;;;;;4897219;29;20267;-75
2021/06/23 14:13:40;;;;;;;0.30;0.30;;;20.30;99.90;;;;;;4897064;29;20215;-75
2021/06/23 14:16:08;;;;;;;0.30;0.30;;;20.30;99.90;;;;;;4896786;29;20227;-75
2021/06/23 14:18:36;;;;;;;0.30;0.30;;;20.10;99.90;;;;;;4896577;29;20322;-75
2021/06/23 14:21:05;;;;;;;0.30;0.30;;;20.20;99.90;;;;;;4897068;29;20211;-75
2021/06/23 14:23:38;;;;;;;0.30;0.30;;;20.30;99.90;;;;;;4902553;29;20740;-75
2021/06/23 14:26:07;;;;;;;0.30;0.30;;;20.30;99.90;;;;;;4900426;29;20257;-75
2021/06/23 14:28:36;;;;;;;0.40;0.40;;;20.40;99.90;;;;;;4896690;29;20662;-75
2021/06/23 14:31:04;;;;;;;0.30;0.30;;;20.70;99.90;;;;;;4904642;29;20258;-75
2021/06/23 14:33:33;;;;;;;0.30;0.30;;;20.90;99.90;;;;;;4915760;29;20294;-77
2021/06/23 14:36:02;;;;;;;0.20;0.20;;;21.20;99.90;;;;;;4912436;29;20202;-77
2021/06/23 14:38:31;;;;;;;0.30;0.30;;;21.30;99.90;;;;;;4897774;29;20302;-75
2021/06/23 14:40:59;;;;;;;0.22;0.22;;;21.20;99.90;;;;;;4896872;29;20211;-77
2021/06/23 14:43:27;;;;;;;0.35;0.35;;;21.10;99.90;;;;;;4907182;29;20786;-75
2021/06/23 14:45:54;;;;;;;0.30;0.30;;;20.80;99.90;;;;;;4915279;29;20262;-75
2021/06/23 14:48:23;;;;;;;0.30;0.30;;;20.70;99.90;;;;;;4915411;29;20229;-75
2021/06/23 14:50:51;;;;;;;0.30;0.30;;;20.90;99.90;;;;;;4915368;29;20614;-75
2021/06/23 14:53:19;;;;;;;0.20;0.20;;;21.10;99.90;;;;;;4909546;29;20231;-74
2021/06/23 14:55:49;;;;;;;0.30;0.30;;;21.10;99.90;;;;;;4896347;29;20251;-77
2021/06/23 14:58:16;;;;;;;0.30;0.30;;;21.20;99.90;;;;;;4899614;29;20258;-77
2021/06/23 15:00:44;;;;;;;0.30;0.30;;;21.20;99.90;;;;;;4911544;29;20625;-77
2021/06/23 15:03:12;;;;;;;0.30;0.30;;;21.10;99.90;;;;;;4919038;29;20203;-76
2021/06/23 15:05:40;;;;;;;0.30;0.30;;;21.10;99.90;;;;;;4915789;29;20226;-76
2021/06/23 15:08:10;;;;;;;0.30;0.30;;;21.10;99.90;;;;;;4906441;29;20246;-75
2021/06/23 15:10:38;;;;;;;0.30;0.30;;;21.30;99.90;;;;;;4911677;29;20258;-75
2021/06/23 15:13:07;;;;;;;0.30;0.30;;;21.50;99.90;;;;;;4907939;29;20271;-75
2021/06/23 15:15:35;;;;;;;0.30;0.30;;;21.50;99.90;;;;;;4922295;29;20722;-75
2021/06/23 15:18:05;;;;;;;0.30;0.30;;;21.50;99.90;;;;;;4905785;29;20283;-75
2021/06/23 15:20:34;;;;;;;0.30;0.30;;;21.50;99.90;;;;;;4907281;29;20262;-75
2021/06/23 15:23:04;;;;;;;0.30;0.30;;;21.20;99.90;;;;;;4897624;29;20218;-74
2021/06/23 15:25:32;;;;;;;0.30;0.30;;;21.10;99.90;;;;;;4906870;29;20597;-74
2021/06/23 15:28:00;;;;;;;0.30;0.30;;;20.90;99.90;;;;;;4899104;29;20234;-75
2021/06/23 15:30:29;;;;;;;0.30;0.30;;;21.00;99.90;;;;;;4899539;29;20243;-75
2021/06/23 15:32:57;;;;;;;0.30;0.30;;;20.90;99.90;;;;;;4899287;29;20294;-75
2021/06/23 15:35:25;;;;;;;0.20;0.20;;;21.00;99.90;;;;;;4899152;29;20207;-76
2021/06/23 15:37:53;;;;;;;0.20;0.20;;;21.10;99.90;;;;;;4903628;29;20282;-75
2021/06/23 15:40:21;;;;;;;0.30;0.30;;;21.10;99.90;;;;;;4908329;29;20199;-74
2021/06/23 15:42:50;;;;;;;0.30;0.30;;;21.20;99.90;;;;;;4899327;29;20555;-75
2021/06/23 15:45:18;;;;;;;0.30;0.30;;;21.20;99.90;;;;;;4903209;29;20207;-77
2021/06/23 15:47:48;;;;;;;0.30;0.30;;;21.20;99.90;;;;;;4913210;29;20282;-77
2021/06/23 15:50:16;;;;;;;0.20;0.20;;;21.30;99.90;;;;;;4918496;29;20609;-77
2021/06/23 15:52:44;;;;;;;0.30;0.30;;;21.30;99.90;;;;;;4918342;29;20672;-79
2021/06/23 15:55:14;;;;;;;0.30;0.30;;;21.30;99.90;;;;;;4918204;29;20591;-77
2021/06/23 15:57:42;;;;;;;0.30;0.30;;;21.10;99.90;;;;;;4914859;29;20727;-77
2021/06/23 16:00:14;;;;;;;0.30;0.30;;;21.00;99.90;;;;;;4918760;29;20221;-78
2021/06/23 16:02:42;;;;;;;0.40;0.40;;;20.80;99.90;;;;;;4918320;29;20219;-77
2021/06/23 16:05:13;;;;;;;0.40;0.40;;;20.60;99.90;;;;;;4907876;29;20262;-77
2021/06/23 16:07:41;;;;;;;0.30;0.30;;;20.60;99.90;;;;;;4900850;29;20232;-76
2021/06/23 16:10:11;;;;;;;0.30;0.30;;;20.70;99.90;;;;;;4898772;29;20625;-75
2021/06/23 16:12:39;;;;;;;0.30;0.30;;;20.90;99.90;;;;;;4898954;29;20589;-76
2021/06/23 16:15:09;;;;;;;0.28;0.28;;;21.10;99.90;;;;;;4909859;29;20203;-76
2021/06/23 16:17:37;;;;;;;0.30;0.30;;;21.10;99.90;;;;;;4921001;29;20238;-81
2021/06/23 16:20:07;;;;;;;0.30;0.30;;;21.10;99.90;;;;;;4920543;29;20234;-78
2021/06/23 16:22:40;;;;;;;0.30;0.30;;;21.00;99.90;;;;;;4921837;29;20731;-76
2021/06/23 16:25:09;;;;;;;0.30;0.30;;;21.20;99.90;;;;;;4933628;29;20257;-75
2021/06/23 16:27:38;;;;;;;0.30;0.30;;;21.10;99.90;;;;;;4931100;29;20235;-76
2021/06/23 16:30:08;;;;;;;0.30;0.30;;;21.20;99.90;;;;;;4933441;29;20203;-77
2021/06/23 16:32:36;;;;;;;0.30;0.30;;;21.10;99.90;;;;;;4930759;29;20195;-77
2021/06/23 16:35:05;;;;;;;0.30;0.30;;;21.10;99.90;;;;;;4918335;29;20214;-73
2021/06/23 16:37:33;;;;;;;0.30;0.30;;;21.00;99.90;;;;;;4917003;29;20647;-70
2021/06/23 16:40:03;;;;;;;0.25;0.25;;;20.80;99.90;;;;;;4917905;29;20219;-78
2021/06/23 16:42:31;;;;;;;0.30;0.30;;;20.90;99.90;;;;;;4919267;29;20699;-79
2021/06/23 16:45:00;;;;;;;0.20;0.20;;;20.90;99.90;;;;;;4919189;29;20207;-76
2021/06/23 16:47:27;;;;;;;0.20;0.20;;;20.90;99.90;;;;;;4919725;29;20230;-79
2021/06/23 16:49:56;;;;;;;0.30;0.30;;;20.90;99.90;;;;;;4918608;29;20203;-79
2021/06/23 16:52:24;;;;;;;0.30;0.30;;;20.80;99.90;;;;;;4914435;29;20204;-78
2021/06/23 16:54:53;;;;;;;0.30;0.30;;;20.90;99.90;;;;;;4915770;29;20266;-78
2021/06/23 16:57:22;;;;;;;0.20;0.20;;;20.80;99.90;;;;;;4920234;29;20265;-78
2021/06/23 16:59:50;;;;;;;0.20;0.20;;;20.70;99.90;;;;;;4915379;29;20207;-76
2021/06/23 17:02:21;;;;;;;0.30;0.30;;;20.60;99.90;;;;;;4918261;29;20354;-77
2021/06/23 17:04:49;;;;;;;0.20;0.20;;;20.60;99.90;;;;;;4918387;29;20235;-78
2021/06/23 17:07:23;;;;;;;0.30;0.30;;;20.60;99.90;;;;;;4913762;29;20258;-80
2021/06/23 17:09:53;;;;;;;0.30;0.30;;;20.50;99.90;;;;;;4906116;29;20226;-77
2021/06/23 17:12:22;;;;;;;0.30;0.30;;;20.50;99.90;;;;;;4905999;29;20207;-77
2021/06/23 17:14:52;;;;;;;0.30;0.30;;;20.50;99.90;;;;;;4907765;29;20211;-79
2021/06/23 17:17:20;;;;;;;0.20;0.20;;;20.50;99.90;;;;;;4902748;29;20260;-77
2021/06/23 17:19:51;;;;;;;0.30;0.30;;;20.60;99.90;;;;;;4899367;29;20207;-77
2021/06/23 17:22:19;;;;;;;0.30;0.30;;;20.60;99.90;;;;;;4902667;29;20219;-79
2021/06/23 17:24:47;;;;;;;0.25;0.25;;;20.60;99.90;;;;;;4901772;29;20235;-76
2021/06/23 17:27:15;;;;;;;0.25;0.25;;;20.60;99.90;;;;;;4897318;29;20290;-75
2021/06/23 17:29:44;;;;;;;0.20;0.20;;;20.60;99.90;;;;;;4899972;29;20203;-75
2021/06/23 17:32:14;;;;;;;0.30;0.30;;;20.70;99.90;;;;;;4898133;29;20294;-76
2021/06/23 17:34:42;;;;;;;0.30;0.30;;;20.60;99.90;;;;;;4899936;29;20219;-76
2021/06/23 17:37:09;;;;;;;0.30;0.30;;;20.60;99.90;;;;;;4899875;29;20287;-80
2021/06/23 17:39:37;;;;;;;0.30;0.30;;;20.60;99.90;;;;;;4914006;29;20656;-78
2021/06/23 17:42:05;;;;;;;0.30;0.30;;;20.40;99.90;;;;;;4915668;29;20258;-79
2021/06/23 17:44:33;;;;;;;0.30;0.30;;;20.20;99.90;;;;;;4914959;29;20231;-76
2021/06/23 17:47:03;;;;;;;0.30;0.30;;;20.40;99.90;;;;;;4914869;29;20239;-77